sensor_id;sensor_type;location;lat;lon;timestamp;P1;durP1;ratioP1;P2;durP2;ratioP2
65387;SDS011;51992;53.528;49.474;2023-09-12T00:01:18;3.40;;;2.50;;
65387;SDS011;51992;53.528;49.474;2023-09-12T00:03:44;3.08;;;2.55;;
65387;SDS011;51992;53.528;49.474;2023-09-12T00:06:10;2.60;;;2.40;;
65387;SDS011;51992;53.528;49.474;2023-09-12T00:08:38;5.75;;;2.75;;
65387;SDS011;51992;53.528;49.474;2023-09-12T00:11:04;3.75;;;2.80;;
65387;SDS011;51992;53.528;49.474;2023-09-12T00:13:32;6.07;;;2.63;;
65387;SDS011;51992;53.528;49.474;2023-09-12T00:15:58;3.88;;;3.08;;
65387;SDS011;51992;53.528;49.474;2023-09-12T00:18:24;3.78;;;2.97;;
65387;SDS011;51992;53.528;49.474;2023-09-12T00:20:50;2.75;;;2.55;;
65387;SDS011;51992;53.528;49.474;2023-09-12T00:23:16;2.88;;;2.50;;
65387;SDS011;51992;53.528;49.474;2023-09-12T00:25:42;7.32;;;2.90;;
65387;SDS011;51992;53.528;49.474;2023-09-12T00:28:08;3.10;;;2.90;;
65387;SDS011;51992;53.528;49.474;2023-09-12T00:30:34;2.80;;;2.60;;
65387;SDS011;51992;53.528;49.474;2023-09-12T00:33:00;3.97;;;3.00;;
65387;SDS011;51992;53.528;49.474;2023-09-12T00:35:26;3.25;;;2.95;;
65387;SDS011;51992;53.528;49.474;2023-09-12T00:37:51;2.88;;;2.58;;
65387;SDS011;51992;53.528;49.474;2023-09-12T00:40:17;2.95;;;2.65;;
65387;SDS011;51992;53.528;49.474;2023-09-12T00:42:43;3.42;;;2.80;;
65387;SDS011;51992;53.528;49.474;2023-09-12T00:45:09;3.53;;;2.65;;
65387;SDS011;51992;53.528;49.474;2023-09-12T00:47:37;3.65;;;2.65;;
65387;SDS011;51992;53.528;49.474;2023-09-12T00:50:04;3.58;;;2.58;;
65387;SDS011;51992;53.528;49.474;2023-09-12T00:52:30;3.35;;;2.75;;
65387;SDS011;51992;53.528;49.474;2023-09-12T00:54:58;2.88;;;2.67;;
65387;SDS011;51992;53.528;49.474;2023-09-12T00:57:23;3.88;;;2.72;;
65387;SDS011;51992;53.528;49.474;2023-09-12T00:59:51;4.80;;;2.78;;
65387;SDS011;51992;53.528;49.474;2023-09-12T01:02:20;3.50;;;2.70;;
65387;SDS011;51992;53.528;49.474;2023-09-12T01:04:46;3.55;;;2.80;;
65387;SDS011;51992;53.528;49.474;2023-09-12T01:07:12;3.90;;;2.80;;
65387;SDS011;51992;53.528;49.474;2023-09-12T01:09:38;2.90;;;2.60;;
65387;SDS011;51992;53.528;49.474;2023-09-12T01:12:06;2.60;;;2.40;;
65387;SDS011;51992;53.528;49.474;2023-09-12T01:14:32;2.60;;;2.40;;
65387;SDS011;51992;53.528;49.474;2023-09-12T01:16:58;3.40;;;2.83;;
65387;SDS011;51992;53.528;49.474;2023-09-12T01:19:25;2.80;;;2.60;;
65387;SDS011;51992;53.528;49.474;2023-09-12T01:30:02;4.25;;;3.00;;
65387;SDS011;51992;53.528;49.474;2023-09-12T01:32:32;5.57;;;2.72;;
65387;SDS011;51992;53.528;49.474;2023-09-12T01:34:58;2.90;;;2.70;;
65387;SDS011;51992;53.528;49.474;2023-09-12T01:37:24;3.72;;;2.72;;
65387;SDS011;51992;53.528;49.474;2023-09-12T01:39:50;3.00;;;2.55;;
65387;SDS011;51992;53.528;49.474;2023-09-12T01:42:16;3.08;;;2.80;;
65387;SDS011;51992;53.528;49.474;2023-09-12T01:44:43;3.40;;;2.63;;
65387;SDS011;51992;53.528;49.474;2023-09-12T01:47:10;3.47;;;3.00;;
65387;SDS011;51992;53.528;49.474;2023-09-12T01:49:37;3.53;;;3.20;;
65387;SDS011;51992;53.528;49.474;2023-09-12T01:52:05;6.13;;;4.10;;
65387;SDS011;51992;53.528;49.474;2023-09-12T01:54:31;4.75;;;4.20;;
65387;SDS011;51992;53.528;49.474;2023-09-12T01:56:58;8.00;;;4.28;;
65387;SDS011;51992;53.528;49.474;2023-09-12T01:59:24;4.43;;;3.80;;
65387;SDS011;51992;53.528;49.474;2023-09-12T02:01:50;7.60;;;3.38;;
65387;SDS011;51992;53.528;49.474;2023-09-12T02:04:16;8.20;;;3.80;;
65387;SDS011;51992;53.528;49.474;2023-09-12T02:06:42;6.35;;;3.47;;
65387;SDS011;51992;53.528;49.474;2023-09-12T02:09:08;3.63;;;3.25;;
65387;SDS011;51992;53.528;49.474;2023-09-12T02:11:34;17.50;;;5.50;;
65387;SDS011;51992;53.528;49.474;2023-09-12T02:14:00;8.25;;;3.45;;
65387;SDS011;51992;53.528;49.474;2023-09-12T02:16:26;10.05;;;3.65;;
65387;SDS011;51992;53.528;49.474;2023-09-12T02:18:52;11.77;;;3.95;;
65387;SDS011;51992;53.528;49.474;2023-09-12T02:21:17;5.30;;;3.78;;
65387;SDS011;51992;53.528;49.474;2023-09-12T02:23:44;8.65;;;3.92;;
65387;SDS011;51992;53.528;49.474;2023-09-12T02:26:10;6.55;;;3.78;;
65387;SDS011;51992;53.528;49.474;2023-09-12T02:28:35;15.27;;;4.80;;
65387;SDS011;51992;53.528;49.474;2023-09-12T02:31:01;6.18;;;4.30;;
65387;SDS011;51992;53.528;49.474;2023-09-12T02:33:27;7.25;;;4.57;;
65387;SDS011;51992;53.528;49.474;2023-09-12T02:35:53;10.50;;;4.60;;
65387;SDS011;51992;53.528;49.474;2023-09-12T02:38:19;7.85;;;4.30;;
65387;SDS011;51992;53.528;49.474;2023-09-12T02:40:45;7.88;;;3.80;;
65387;SDS011;51992;53.528;49.474;2023-09-12T02:43:11;4.93;;;3.95;;
65387;SDS011;51992;53.528;49.474;2023-09-12T02:45:37;8.82;;;4.10;;
65387;SDS011;51992;53.528;49.474;2023-09-12T02:48:03;6.50;;;3.90;;
65387;SDS011;51992;53.528;49.474;2023-09-12T02:50:29;7.97;;;3.80;;
65387;SDS011;51992;53.528;49.474;2023-09-12T02:52:55;27.73;;;6.10;;
65387;SDS011;51992;53.528;49.474;2023-09-12T02:55:20;7.38;;;4.07;;
65387;SDS011;51992;53.528;49.474;2023-09-12T02:57:46;7.35;;;4.00;;
65387;SDS011;51992;53.528;49.474;2023-09-12T03:00:12;12.05;;;3.75;;
65387;SDS011;51992;53.528;49.474;2023-09-12T03:02:39;6.60;;;3.55;;
65387;SDS011;51992;53.528;49.474;2023-09-12T03:05:05;8.65;;;5.00;;
65387;SDS011;51992;53.528;49.474;2023-09-12T03:07:31;17.42;;;4.82;;
65387;SDS011;51992;53.528;49.474;2023-09-12T03:09:57;12.35;;;4.13;;
65387;SDS011;51992;53.528;49.474;2023-09-12T03:12:23;16.13;;;4.53;;
65387;SDS011;51992;53.528;49.474;2023-09-12T03:14:49;14.32;;;4.57;;
65387;SDS011;51992;53.528;49.474;2023-09-12T03:17:15;8.50;;;3.72;;
65387;SDS011;51992;53.528;49.474;2023-09-12T03:19:40;8.27;;;4.20;;
65387;SDS011;51992;53.528;49.474;2023-09-12T03:22:06;5.65;;;3.60;;
65387;SDS011;51992;53.528;49.474;2023-09-12T03:24:32;25.52;;;5.32;;
65387;SDS011;51992;53.528;49.474;2023-09-12T03:26:58;11.52;;;4.13;;
65387;SDS011;51992;53.528;49.474;2023-09-12T03:29:24;9.50;;;3.72;;
65387;SDS011;51992;53.528;49.474;2023-09-12T03:31:50;9.13;;;3.80;;
65387;SDS011;51992;53.528;49.474;2023-09-12T03:34:16;25.90;;;5.15;;
65387;SDS011;51992;53.528;49.474;2023-09-12T03:36:41;12.20;;;4.95;;
65387;SDS011;51992;53.528;49.474;2023-09-12T03:39:07;21.67;;;9.43;;
65387;SDS011;51992;53.528;49.474;2023-09-12T03:41:37;26.52;;;10.98;;
65387;SDS011;51992;53.528;49.474;2023-09-12T03:44:03;50.67;;;18.08;;
65387;SDS011;51992;53.528;49.474;2023-09-12T03:46:29;39.85;;;18.98;;
65387;SDS011;51992;53.528;49.474;2023-09-12T03:48:55;33.33;;;13.07;;
65387;SDS011;51992;53.528;49.474;2023-09-12T03:51:21;20.27;;;11.18;;
65387;SDS011;51992;53.528;49.474;2023-09-12T03:53:47;22.42;;;7.75;;
65387;SDS011;51992;53.528;49.474;2023-09-12T03:56:15;19.55;;;8.32;;
65387;SDS011;51992;53.528;49.474;2023-09-12T03:58:41;23.80;;;7.68;;
65387;SDS011;51992;53.528;49.474;2023-09-12T04:01:07;7.95;;;3.95;;
65387;SDS011;51992;53.528;49.474;2023-09-12T04:03:33;6.00;;;4.28;;
65387;SDS011;51992;53.528;49.474;2023-09-12T04:05:59;6.80;;;3.88;;
65387;SDS011;51992;53.528;49.474;2023-09-12T04:08:25;4.93;;;3.75;;
65387;SDS011;51992;53.528;49.474;2023-09-12T04:10:51;5.65;;;3.75;;
65387;SDS011;51992;53.528;49.474;2023-09-12T04:13:17;8.20;;;4.20;;
65387;SDS011;51992;53.528;49.474;2023-09-12T04:15:43;3.83;;;3.40;;
65387;SDS011;51992;53.528;49.474;2023-09-12T04:18:09;6.63;;;3.50;;
65387;SDS011;51992;53.528;49.474;2023-09-12T04:20:34;5.28;;;3.78;;
65387;SDS011;51992;53.528;49.474;2023-09-12T04:23:01;8.90;;;4.07;;
65387;SDS011;51992;53.528;49.474;2023-09-12T04:25:28;6.30;;;3.47;;
65387;SDS011;51992;53.528;49.474;2023-09-12T04:27:54;5.35;;;3.35;;
65387;SDS011;51992;53.528;49.474;2023-09-12T04:30:20;6.35;;;3.13;;
65387;SDS011;51992;53.528;49.474;2023-09-12T04:32:46;4.95;;;3.45;;
65387;SDS011;51992;53.528;49.474;2023-09-12T04:35:12;14.02;;;3.80;;
65387;SDS011;51992;53.528;49.474;2023-09-12T04:37:38;5.75;;;3.15;;
65387;SDS011;51992;53.528;49.474;2023-09-12T04:40:04;17.65;;;4.45;;
65387;SDS011;51992;53.528;49.474;2023-09-12T04:42:32;12.98;;;4.65;;
65387;SDS011;51992;53.528;49.474;2023-09-12T04:44:57;8.75;;;3.40;;
65387;SDS011;51992;53.528;49.474;2023-09-12T04:47:23;8.13;;;3.22;;
65387;SDS011;51992;53.528;49.474;2023-09-12T04:49:49;4.38;;;3.35;;
65387;SDS011;51992;53.528;49.474;2023-09-12T04:52:14;10.38;;;3.95;;
65387;SDS011;51992;53.528;49.474;2023-09-12T04:54:40;22.08;;;4.78;;
65387;SDS011;51992;53.528;49.474;2023-09-12T04:57:07;15.02;;;4.57;;
65387;SDS011;51992;53.528;49.474;2023-09-12T04:59:33;19.45;;;4.78;;
65387;SDS011;51992;53.528;49.474;2023-09-12T05:01:58;8.90;;;3.63;;
65387;SDS011;51992;53.528;49.474;2023-09-12T05:04:24;5.50;;;3.80;;
65387;SDS011;51992;53.528;49.474;2023-09-12T05:06:49;27.08;;;4.72;;
65387;SDS011;51992;53.528;49.474;2023-09-12T05:09:15;9.60;;;3.53;;
65387;SDS011;51992;53.528;49.474;2023-09-12T05:11:42;14.52;;;3.92;;
65387;SDS011;51992;53.528;49.474;2023-09-12T05:14:09;8.32;;;3.60;;
65387;SDS011;51992;53.528;49.474;2023-09-12T05:16:35;12.02;;;3.88;;
65387;SDS011;51992;53.528;49.474;2023-09-12T05:19:01;11.45;;;3.80;;
65387;SDS011;51992;53.528;49.474;2023-09-12T05:21:26;12.73;;;3.95;;
65387;SDS011;51992;53.528;49.474;2023-09-12T05:23:52;15.13;;;3.80;;
65387;SDS011;51992;53.528;49.474;2023-09-12T05:26:18;23.23;;;4.45;;
65387;SDS011;51992;53.528;49.474;2023-09-12T05:28:44;9.35;;;3.53;;
65387;SDS011;51992;53.528;49.474;2023-09-12T05:31:10;13.68;;;3.92;;
65387;SDS011;51992;53.528;49.474;2023-09-12T05:33:36;7.72;;;3.13;;
65387;SDS011;51992;53.528;49.474;2023-09-12T05:36:02;13.18;;;3.65;;
65387;SDS011;51992;53.528;49.474;2023-09-12T05:38:28;10.18;;;3.70;;
65387;SDS011;51992;53.528;49.474;2023-09-12T05:40:55;10.25;;;4.72;;
65387;SDS011;51992;53.528;49.474;2023-09-12T05:43:21;17.45;;;6.00;;
65387;SDS011;51992;53.528;49.474;2023-09-12T05:45:47;5.30;;;3.13;;
65387;SDS011;51992;53.528;49.474;2023-09-12T05:48:13;4.60;;;2.55;;
65387;SDS011;51992;53.528;49.474;2023-09-12T05:50:39;29.38;;;6.18;;
65387;SDS011;51992;53.528;49.474;2023-09-12T05:53:05;3.13;;;2.22;;
65387;SDS011;51992;53.528;49.474;2023-09-12T05:55:31;15.20;;;3.80;;
65387;SDS011;51992;53.528;49.474;2023-09-12T05:57:57;14.43;;;3.50;;
65387;SDS011;51992;53.528;49.474;2023-09-12T06:00:23;3.70;;;2.85;;
65387;SDS011;51992;53.528;49.474;2023-09-12T06:02:49;12.00;;;3.40;;
65387;SDS011;51992;53.528;49.474;2023-09-12T06:05:15;7.32;;;2.55;;
65387;SDS011;51992;53.528;49.474;2023-09-12T06:07:41;11.05;;;3.95;;
65387;SDS011;51992;53.528;49.474;2023-09-12T06:10:07;4.03;;;3.13;;
65387;SDS011;51992;53.528;49.474;2023-09-12T06:12:33;6.30;;;2.60;;
65387;SDS011;51992;53.528;49.474;2023-09-12T06:15:02;6.97;;;2.92;;
65387;SDS011;51992;53.528;49.474;2023-09-12T06:17:28;9.13;;;3.15;;
65387;SDS011;51992;53.528;49.474;2023-09-12T06:19:54;9.32;;;3.25;;
65387;SDS011;51992;53.528;49.474;2023-09-12T06:22:20;11.57;;;3.22;;
65387;SDS011;51992;53.528;49.474;2023-09-12T06:24:49;6.30;;;2.70;;
65387;SDS011;51992;53.528;49.474;2023-09-12T06:27:15;10.52;;;3.25;;
65387;SDS011;51992;53.528;49.474;2023-09-12T06:29:48;8.55;;;2.83;;
65387;SDS011;51992;53.528;49.474;2023-09-12T06:32:14;4.65;;;2.80;;
65387;SDS011;51992;53.528;49.474;2023-09-12T06:34:41;5.50;;;2.47;;
65387;SDS011;51992;53.528;49.474;2023-09-12T06:37:07;14.43;;;3.60;;
65387;SDS011;51992;53.528;49.474;2023-09-12T06:39:32;53.45;;;6.95;;
65387;SDS011;51992;53.528;49.474;2023-09-12T06:41:58;8.68;;;3.45;;
65387;SDS011;51992;53.528;49.474;2023-09-12T06:44:24;3.55;;;2.90;;
65387;SDS011;51992;53.528;49.474;2023-09-12T06:46:49;5.47;;;3.00;;
65387;SDS011;51992;53.528;49.474;2023-09-12T06:49:15;6.90;;;2.47;;
65387;SDS011;51992;53.528;49.474;2023-09-12T06:51:41;13.07;;;3.45;;
65387;SDS011;51992;53.528;49.474;2023-09-12T06:54:06;3.95;;;2.90;;
65387;SDS011;51992;53.528;49.474;2023-09-12T06:56:32;5.07;;;2.63;;
65387;SDS011;51992;53.528;49.474;2023-09-12T06:59:05;6.57;;;3.30;;
65387;SDS011;51992;53.528;49.474;2023-09-12T07:01:31;5.78;;;3.25;;
65387;SDS011;51992;53.528;49.474;2023-09-12T07:03:57;5.10;;;3.03;;
65387;SDS011;51992;53.528;49.474;2023-09-12T07:06:23;6.90;;;5.00;;
65387;SDS011;51992;53.528;49.474;2023-09-12T07:08:48;11.50;;;3.67;;
65387;SDS011;51992;53.528;49.474;2023-09-12T07:11:14;21.90;;;4.25;;
65387;SDS011;51992;53.528;49.474;2023-09-12T07:13:40;14.55;;;3.70;;
65387;SDS011;51992;53.528;49.474;2023-09-12T07:16:06;8.10;;;3.42;;
65387;SDS011;51992;53.528;49.474;2023-09-12T07:18:31;8.38;;;3.40;;
65387;SDS011;51992;53.528;49.474;2023-09-12T07:21:01;8.20;;;3.33;;
65387;SDS011;51992;53.528;49.474;2023-09-12T07:23:27;6.90;;;3.30;;
65387;SDS011;51992;53.528;49.474;2023-09-12T07:25:53;5.65;;;2.95;;
65387;SDS011;51992;53.528;49.474;2023-09-12T07:28:20;7.07;;;3.38;;
65387;SDS011;51992;53.528;49.474;2023-09-12T07:30:48;9.43;;;3.47;;
65387;SDS011;51992;53.528;49.474;2023-09-12T07:33:14;6.93;;;3.63;;
65387;SDS011;51992;53.528;49.474;2023-09-12T07:35:40;2.72;;;2.40;;
65387;SDS011;51992;53.528;49.474;2023-09-12T07:38:05;8.10;;;3.42;;
65387;SDS011;51992;53.528;49.474;2023-09-12T07:40:31;4.47;;;3.33;;
65387;SDS011;51992;53.528;49.474;2023-09-12T07:42:57;7.97;;;3.50;;
65387;SDS011;51992;53.528;49.474;2023-09-12T07:45:22;10.15;;;3.30;;
65387;SDS011;51992;53.528;49.474;2023-09-12T07:47:48;9.20;;;3.38;;
65387;SDS011;51992;53.528;49.474;2023-09-12T07:50:14;3.08;;;2.83;;
65387;SDS011;51992;53.528;49.474;2023-09-12T07:52:40;4.55;;;3.28;;
65387;SDS011;51992;53.528;49.474;2023-09-12T07:55:06;5.00;;;3.00;;
65387;SDS011;51992;53.528;49.474;2023-09-12T07:57:33;8.32;;;3.90;;
65387;SDS011;51992;53.528;49.474;2023-09-12T07:59:59;6.07;;;3.92;;
65387;SDS011;51992;53.528;49.474;2023-09-12T08:02:25;3.30;;;2.60;;
65387;SDS011;51992;53.528;49.474;2023-09-12T08:04:51;5.50;;;2.90;;
65387;SDS011;51992;53.528;49.474;2023-09-12T08:07:17;6.43;;;4.20;;
65387;SDS011;51992;53.528;49.474;2023-09-12T08:09:53;4.47;;;2.80;;
65387;SDS011;51992;53.528;49.474;2023-09-12T08:12:19;5.47;;;2.78;;
65387;SDS011;51992;53.528;49.474;2023-09-12T08:14:45;5.20;;;2.67;;
65387;SDS011;51992;53.528;49.474;2023-09-12T08:17:11;11.55;;;3.50;;
65387;SDS011;51992;53.528;49.474;2023-09-12T08:19:38;29.88;;;5.50;;
65387;SDS011;51992;53.528;49.474;2023-09-12T08:22:04;4.57;;;2.50;;
65387;SDS011;51992;53.528;49.474;2023-09-12T08:24:30;3.90;;;2.90;;
65387;SDS011;51992;53.528;49.474;2023-09-12T08:26:56;9.60;;;3.28;;
65387;SDS011;51992;53.528;49.474;2023-09-12T08:29:22;7.97;;;3.47;;
65387;SDS011;51992;53.528;49.474;2023-09-12T08:31:50;10.15;;;4.20;;
65387;SDS011;51992;53.528;49.474;2023-09-12T08:34:16;3.70;;;3.40;;
65387;SDS011;51992;53.528;49.474;2023-09-12T08:36:41;6.68;;;3.80;;
65387;SDS011;51992;53.528;49.474;2023-09-12T08:39:11;9.18;;;3.40;;
65387;SDS011;51992;53.528;49.474;2023-09-12T08:41:37;4.65;;;3.05;;
65387;SDS011;51992;53.528;49.474;2023-09-12T08:44:03;4.35;;;3.90;;
65387;SDS011;51992;53.528;49.474;2023-09-12T08:46:31;6.97;;;4.03;;
65387;SDS011;51992;53.528;49.474;2023-09-12T08:48:57;3.80;;;3.50;;
65387;SDS011;51992;53.528;49.474;2023-09-12T08:51:24;6.43;;;3.58;;
65387;SDS011;51992;53.528;49.474;2023-09-12T08:53:50;12.00;;;3.90;;
65387;SDS011;51992;53.528;49.474;2023-09-12T08:56:16;3.92;;;3.38;;
65387;SDS011;51992;53.528;49.474;2023-09-12T08:58:43;5.53;;;3.90;;
65387;SDS011;51992;53.528;49.474;2023-09-12T09:01:09;6.38;;;3.03;;
65387;SDS011;51992;53.528;49.474;2023-09-12T09:03:37;3.22;;;3.03;;
65387;SDS011;51992;53.528;49.474;2023-09-12T09:06:03;15.32;;;3.85;;
65387;SDS011;51992;53.528;49.474;2023-09-12T09:08:29;6.28;;;3.95;;
65387;SDS011;51992;53.528;49.474;2023-09-12T09:10:57;10.27;;;3.80;;
65387;SDS011;51992;53.528;49.474;2023-09-12T09:13:24;8.45;;;4.03;;
65387;SDS011;51992;53.528;49.474;2023-09-12T09:15:53;4.47;;;3.50;;
65387;SDS011;51992;53.528;49.474;2023-09-12T09:21:27;11.65;;;3.90;;
65387;SDS011;51992;53.528;49.474;2023-09-12T09:23:54;7.63;;;3.30;;
65387;SDS011;51992;53.528;49.474;2023-09-12T09:26:20;6.30;;;3.17;;
65387;SDS011;51992;53.528;49.474;2023-09-12T09:29:08;4.80;;;2.72;;
65387;SDS011;51992;53.528;49.474;2023-09-12T09:31:32;3.05;;;2.40;;
65387;SDS011;51992;53.528;49.474;2023-09-12T09:34:02;6.88;;;2.60;;
65387;SDS011;51992;53.528;49.474;2023-09-12T09:36:29;2.35;;;2.13;;
65387;SDS011;51992;53.528;49.474;2023-09-12T09:38:56;3.42;;;2.53;;
65387;SDS011;51992;53.528;49.474;2023-09-12T09:41:22;5.85;;;3.58;;
65387;SDS011;51992;53.528;49.474;2023-09-12T09:43:51;3.70;;;2.50;;
65387;SDS011;51992;53.528;49.474;2023-09-12T09:46:17;5.75;;;2.75;;
65387;SDS011;51992;53.528;49.474;2023-09-12T09:48:49;11.05;;;3.28;;
65387;SDS011;51992;53.528;49.474;2023-09-12T09:51:21;6.45;;;2.55;;
65387;SDS011;51992;53.528;49.474;2023-09-12T09:53:50;6.60;;;2.80;;
65387;SDS011;51992;53.528;49.474;2023-09-12T09:56:23;6.25;;;2.47;;
65387;SDS011;51992;53.528;49.474;2023-09-12T09:58:53;10.05;;;2.83;;
65387;SDS011;51992;53.528;49.474;2023-09-12T10:01:20;6.82;;;3.00;;
65387;SDS011;51992;53.528;49.474;2023-09-12T10:03:46;5.75;;;2.65;;
65387;SDS011;51992;53.528;49.474;2023-09-12T10:06:15;4.28;;;2.42;;
65387;SDS011;51992;53.528;49.474;2023-09-12T10:08:45;3.15;;;2.10;;
65387;SDS011;51992;53.528;49.474;2023-09-12T10:11:15;7.30;;;2.95;;
65387;SDS011;51992;53.528;49.474;2023-09-12T10:13:55;4.78;;;2.63;;
65387;SDS011;51992;53.528;49.474;2023-09-12T10:16:24;5.70;;;2.80;;
65387;SDS011;51992;53.528;49.474;2023-09-12T10:18:58;3.63;;;2.90;;
65387;SDS011;51992;53.528;49.474;2023-09-12T10:21:28;5.63;;;2.83;;
65387;SDS011;51992;53.528;49.474;2023-09-12T10:23:54;38.03;;;5.55;;
65387;SDS011;51992;53.528;49.474;2023-09-12T10:26:21;7.65;;;2.50;;
65387;SDS011;51992;53.528;49.474;2023-09-12T10:28:47;10.88;;;3.28;;
65387;SDS011;51992;53.528;49.474;2023-09-12T10:31:14;5.63;;;3.08;;
65387;SDS011;51992;53.528;49.474;2023-09-12T10:33:40;3.17;;;2.80;;
65387;SDS011;51992;53.528;49.474;2023-09-12T10:36:08;4.80;;;2.47;;
65387;SDS011;51992;53.528;49.474;2023-09-12T10:38:36;11.50;;;3.15;;
65387;SDS011;51992;53.528;49.474;2023-09-12T10:41:05;9.80;;;2.53;;
65387;SDS011;51992;53.528;49.474;2023-09-12T10:43:32;2.63;;;2.42;;
65387;SDS011;51992;53.528;49.474;2023-09-12T10:46:01;8.50;;;2.55;;
65387;SDS011;51992;53.528;49.474;2023-09-12T10:48:29;10.25;;;2.63;;
65387;SDS011;51992;53.528;49.474;2023-09-12T10:50:56;6.57;;;2.38;;
65387;SDS011;51992;53.528;49.474;2023-09-12T10:53:23;6.68;;;2.35;;
65387;SDS011;51992;53.528;49.474;2023-09-12T10:55:59;19.85;;;3.53;;
65387;SDS011;51992;53.528;49.474;2023-09-12T10:58:27;4.50;;;2.15;;
65387;SDS011;51992;53.528;49.474;2023-09-12T11:03:38;11.43;;;3.10;;
65387;SDS011;51992;53.528;49.474;2023-09-12T11:06:06;26.90;;;4.68;;
65387;SDS011;51992;53.528;49.474;2023-09-12T11:09:15;2.65;;;2.10;;
65387;SDS011;51992;53.528;49.474;2023-09-12T11:11:32;26.45;;;4.82;;
65387;SDS011;51992;53.528;49.474;2023-09-12T11:14:08;13.25;;;2.72;;
65387;SDS011;51992;53.528;49.474;2023-09-12T11:16:34;6.45;;;2.47;;
65387;SDS011;51992;53.528;49.474;2023-09-12T11:19:17;2.88;;;1.80;;
65387;SDS011;51992;53.528;49.474;2023-09-12T11:21:44;2.50;;;2.10;;
65387;SDS011;51992;53.528;49.474;2023-09-12T11:24:11;2.10;;;2.00;;
65387;SDS011;51992;53.528;49.474;2023-09-12T11:29:29;4.53;;;1.85;;
65387;SDS011;51992;53.528;49.474;2023-09-12T11:31:57;7.28;;;2.08;;
65387;SDS011;51992;53.528;49.474;2023-09-12T11:34:26;4.60;;;2.10;;
65387;SDS011;51992;53.528;49.474;2023-09-12T11:36:56;10.82;;;2.08;;
65387;SDS011;51992;53.528;49.474;2023-09-12T11:39:24;7.80;;;2.60;;
65387;SDS011;51992;53.528;49.474;2023-09-12T11:41:52;2.53;;;1.85;;
65387;SDS011;51992;53.528;49.474;2023-09-12T11:44:19;2.00;;;1.55;;
65387;SDS011;51992;53.528;49.474;2023-09-12T11:46:49;1.83;;;1.55;;
65387;SDS011;51992;53.528;49.474;2023-09-12T11:49:16;9.70;;;2.17;;
65387;SDS011;51992;53.528;49.474;2023-09-12T11:51:46;6.38;;;2.28;;
65387;SDS011;51992;53.528;49.474;2023-09-12T11:54:18;16.48;;;3.63;;
65387;SDS011;51992;53.528;49.474;2023-09-12T11:56:44;5.07;;;2.03;;
65387;SDS011;51992;53.528;49.474;2023-09-12T11:59:11;8.52;;;2.80;;
65387;SDS011;51992;53.528;49.474;2023-09-12T12:01:36;15.68;;;3.85;;
65387;SDS011;51992;53.528;49.474;2023-09-12T12:04:03;6.40;;;2.65;;
65387;SDS011;51992;53.528;49.474;2023-09-12T12:06:29;4.10;;;1.98;;
65387;SDS011;51992;53.528;49.474;2023-09-12T12:08:55;34.45;;;5.25;;
65387;SDS011;51992;53.528;49.474;2023-09-12T12:11:21;16.63;;;3.47;;
65387;SDS011;51992;53.528;49.474;2023-09-12T12:13:51;3.35;;;2.00;;
65387;SDS011;51992;53.528;49.474;2023-09-12T12:16:17;3.60;;;1.92;;
65387;SDS011;51992;53.528;49.474;2023-09-12T12:18:43;4.20;;;2.05;;
65387;SDS011;51992;53.528;49.474;2023-09-12T12:21:09;2.80;;;1.75;;
65387;SDS011;51992;53.528;49.474;2023-09-12T12:23:35;3.60;;;1.75;;
65387;SDS011;51992;53.528;49.474;2023-09-12T12:26:05;2.13;;;1.70;;
65387;SDS011;51992;53.528;49.474;2023-09-12T12:28:31;7.07;;;1.88;;
65387;SDS011;51992;53.528;49.474;2023-09-12T12:30:58;4.63;;;1.67;;
65387;SDS011;51992;53.528;49.474;2023-09-12T12:33:24;12.32;;;2.40;;
65387;SDS011;51992;53.528;49.474;2023-09-12T12:35:58;7.45;;;2.40;;
65387;SDS011;51992;53.528;49.474;2023-09-12T12:38:24;7.53;;;2.45;;
65387;SDS011;51992;53.528;49.474;2023-09-12T12:40:52;7.57;;;2.50;;
65387;SDS011;51992;53.528;49.474;2023-09-12T12:43:20;5.68;;;1.80;;
65387;SDS011;51992;53.528;49.474;2023-09-12T12:45:55;16.58;;;3.47;;
65387;SDS011;51992;53.528;49.474;2023-09-12T12:48:30;12.23;;;3.60;;
65387;SDS011;51992;53.528;49.474;2023-09-12T12:50:56;41.53;;;6.75;;
65387;SDS011;51992;53.528;49.474;2023-09-12T12:53:41;11.25;;;3.28;;
65387;SDS011;51992;53.528;49.474;2023-09-12T12:56:07;3.47;;;2.60;;
65387;SDS011;51992;53.528;49.474;2023-09-12T12:58:33;10.93;;;2.88;;
65387;SDS011;51992;53.528;49.474;2023-09-12T13:01:00;2.95;;;2.03;;
65387;SDS011;51992;53.528;49.474;2023-09-12T13:03:26;41.47;;;5.88;;
65387;SDS011;51992;53.528;49.474;2023-09-12T13:05:52;9.07;;;2.60;;
65387;SDS011;51992;53.528;49.474;2023-09-12T13:08:17;12.43;;;3.40;;
65387;SDS011;51992;53.528;49.474;2023-09-12T13:10:46;11.48;;;3.40;;
65387;SDS011;51992;53.528;49.474;2023-09-12T13:13:12;5.70;;;2.85;;
65387;SDS011;51992;53.528;49.474;2023-09-12T13:15:38;3.63;;;2.40;;
65387;SDS011;51992;53.528;49.474;2023-09-12T13:18:04;4.78;;;2.58;;
65387;SDS011;51992;53.528;49.474;2023-09-12T13:20:32;3.35;;;2.60;;
65387;SDS011;51992;53.528;49.474;2023-09-12T13:22:58;11.65;;;3.30;;
65387;SDS011;51992;53.528;49.474;2023-09-12T13:25:23;2.35;;;2.15;;
65387;SDS011;51992;53.528;49.474;2023-09-12T13:27:49;2.33;;;2.13;;
65387;SDS011;51992;53.528;49.474;2023-09-12T13:30:15;8.80;;;3.05;;
65387;SDS011;51992;53.528;49.474;2023-09-12T13:32:41;5.65;;;2.30;;
65387;SDS011;51992;53.528;49.474;2023-09-12T13:35:07;7.38;;;2.60;;
65387;SDS011;51992;53.528;49.474;2023-09-12T13:37:33;3.97;;;2.50;;
65387;SDS011;51992;53.528;49.474;2023-09-12T13:39:59;4.90;;;3.55;;
65387;SDS011;51992;53.528;49.474;2023-09-12T13:42:25;4.53;;;2.45;;
65387;SDS011;51992;53.528;49.474;2023-09-12T13:44:56;11.40;;;3.20;;
65387;SDS011;51992;53.528;49.474;2023-09-12T13:47:22;5.53;;;2.80;;
65387;SDS011;51992;53.528;49.474;2023-09-12T13:49:48;4.88;;;2.55;;
65387;SDS011;51992;53.528;49.474;2023-09-12T13:52:17;5.55;;;2.50;;
65387;SDS011;51992;53.528;49.474;2023-09-12T13:54:43;4.75;;;2.40;;
65387;SDS011;51992;53.528;49.474;2023-09-12T13:57:09;2.78;;;2.00;;
65387;SDS011;51992;53.528;49.474;2023-09-12T13:59:35;4.05;;;2.28;;
65387;SDS011;51992;53.528;49.474;2023-09-12T14:02:01;6.47;;;2.60;;
65387;SDS011;51992;53.528;49.474;2023-09-12T14:04:27;5.30;;;2.60;;
65387;SDS011;51992;53.528;49.474;2023-09-12T14:06:53;3.38;;;2.60;;
65387;SDS011;51992;53.528;49.474;2023-09-12T14:09:19;2.85;;;2.55;;
65387;SDS011;51992;53.528;49.474;2023-09-12T14:11:47;9.50;;;2.72;;
65387;SDS011;51992;53.528;49.474;2023-09-12T14:14:13;5.47;;;2.83;;
65387;SDS011;51992;53.528;49.474;2023-09-12T14:16:39;2.80;;;2.55;;
65387;SDS011;51992;53.528;49.474;2023-09-12T14:19:05;7.65;;;2.95;;
65387;SDS011;51992;53.528;49.474;2023-09-12T14:21:31;4.65;;;2.97;;
65387;SDS011;51992;53.528;49.474;2023-09-12T14:23:57;8.15;;;3.05;;
65387;SDS011;51992;53.528;49.474;2023-09-12T14:26:23;6.38;;;3.20;;
65387;SDS011;51992;53.528;49.474;2023-09-12T14:28:49;2.92;;;2.60;;
65387;SDS011;51992;53.528;49.474;2023-09-12T14:31:17;3.13;;;2.22;;
65387;SDS011;51992;53.528;49.474;2023-09-12T14:33:43;2.72;;;2.50;;
65387;SDS011;51992;53.528;49.474;2023-09-12T14:36:09;3.35;;;3.05;;
65387;SDS011;51992;53.528;49.474;2023-09-12T14:38:35;6.55;;;2.88;;
65387;SDS011;51992;53.528;49.474;2023-09-12T14:41:00;25.15;;;4.30;;
65387;SDS011;51992;53.528;49.474;2023-09-12T14:43:26;19.42;;;3.83;;
65387;SDS011;51992;53.528;49.474;2023-09-12T14:45:54;42.03;;;6.82;;